Terminal Aerodrome Forecast
Issued by NWS Sterling, VA

Current Version | Previous Version | Text Only | Print | Product List | Glossary On
Versions: 1 2 3 4 5 6 7 8 9 10 11 12 13 14 15 16 17 18 19 20 21 22 23 24 25 26 27 28 29 30
000
FTUS41 KLWX 222328
TAFBWI
TAF
KBWI 222328Z 2300/2406 05009KT 5SM -RA OVC006
     FM230400 07012G22KT 1 1/2SM -RA OVC003
     FM231100 07021G40KT 2SM RA OVC003
     FM231700 07017G37KT 1SM RA OVC008
     FM240000 05012KT 2SM -SHRA OVC008
     FM240400 02008KT 1SM -SHRA OVC008=

USA.gov is the U.S. government's official web portal to all federal, state and local government web resources and services.